Time;durP1;ratioP1;P1;durP2;ratioP2;P2;SDS_P1;SDS_P2;PMS_P1;PMS_P2;Temp;Humidity;BMP_temperature;BMP_pressure;BME280_temperature;BME280_humidity;BME280_pressure;Samples;Min_cycle;Max_cycle;Signal;HPM_P1;HPM_P2
2022/09/17 00:00:54;;;;;;;11.63;5.53;;;;;;;19.29;100.00;152501.45;1787988;80;21036;-60
2022/09/17 00:03:22;;;;;;;12.43;6.17;;;;;;;19.25;100.00;152491.02;1790350;78;20998;-60
2022/09/17 00:05:48;;;;;;;9.48;6.12;;;;;;;19.22;100.00;152483.19;1785002;80;21070;-59
2022/09/17 00:08:16;;;;;;;10.88;6.28;;;;;;;19.21;100.00;152480.59;1787478;78;21764;-59
2022/09/17 00:10:43;;;;;;;11.15;6.53;;;;;;;19.16;100.00;152470.16;1790238;80;20978;-59
2022/09/17 00:13:11;;;;;;;10.38;6.00;;;;;;;19.14;100.00;152463.61;1795704;78;21053;-60
2022/09/17 00:15:45;;;;;;;7.05;5.15;;;;;;;19.11;100.00;152457.06;1786127;79;21073;-60
2022/09/17 00:18:13;;;;;;;7.72;4.58;;;;;;;19.05;100.00;152441.41;1792532;78;21045;-60
2022/09/17 00:20:41;;;;;;;7.28;4.25;;;;;;;19.00;100.00;152429.66;1790873;78;21228;-59
2022/09/17 00:23:08;;;;;;;6.03;3.83;;;;;;;18.99;100.00;152427.05;1795345;78;20971;-59
2022/09/17 00:25:43;;;;;;;7.80;3.98;;;;;;;18.96;100.00;152417.89;1785184;80;21013;-59
2022/09/17 00:28:11;;;;;;;7.95;4.50;;;;;;;18.92;100.00;152407.45;1792988;78;21012;-59
2022/09/17 00:30:40;;;;;;;9.03;4.92;;;;;;;18.89;100.00;152402.19;1780822;79;20929;-60
2022/09/17 00:33:07;;;;;;;10.55;5.20;;;;;;;18.86;100.00;152394.38;1773189;80;21964;-60
2022/09/17 00:35:33;;;;;;;7.03;5.05;;;;;;;18.83;100.00;152386.55;1780332;79;21016;-60
2022/09/17 00:38:00;;;;;;;8.40;4.60;;;;;;;18.83;100.00;152386.55;1771399;81;21413;-60
2022/09/17 00:40:27;;;;;;;8.30;4.67;;;;;;;18.81;100.00;152381.33;1776616;79;21032;-59
2022/09/17 00:42:54;;;;;;;8.63;4.25;;;;;;;18.78;100.00;152373.50;1775818;79;21523;-59
2022/09/17 00:45:21;;;;;;;9.35;4.62;;;;;;;18.79;100.00;152376.11;1772892;79;22057;-60
2022/09/17 00:47:54;;;;;;;7.03;3.95;;;;;;;18.78;100.00;152373.50;1773078;80;20879;-60
2022/09/17 00:50:30;;;;;;;9.43;4.00;;;;;;;18.75;100.00;152365.69;1780080;78;20961;-60
2022/09/17 00:53:07;;;;;;;13.18;4.12;;;;;;;18.76;100.00;152368.30;1771315;80;21022;-57
2022/09/17 00:55:38;;;;;;;7.65;3.22;;;;;;;18.75;100.00;152365.69;1779143;79;21062;-59
2022/09/17 00:58:07;;;;;;;7.83;3.62;;;;;;;18.72;100.00;152357.86;1773005;79;21582;-59
2022/09/17 01:00:34;;;;;;;9.98;3.20;;;;;;;18.70;100.00;152352.64;1772342;79;20989;-58
2022/09/17 01:03:01;;;;;;;4.28;3.17;;;;;;;18.68;100.00;152347.38;1775992;79;21041;-59
2022/09/17 01:05:54;;;;;;;6.35;2.58;;;;;;;18.66;100.00;152342.16;1772340;80;21012;-59
2022/09/17 01:09:04;;;;;;;6.85;3.45;;;;;;;18.64;100.00;152336.95;1772030;80;21582;-59
2022/09/17 01:11:48;;;;;;;6.72;3.70;;;;;;;18.64;100.00;152338.28;1776700;79;21291;-58
2022/09/17 01:14:38;;;;;;;10.20;3.60;;;;;;;18.63;100.00;152335.67;1775812;79;21344;-58
2022/09/17 01:17:48;;;;;;;10.00;3.87;;;;;;;18.63;100.00;152335.67;1780422;79;21073;-60
2022/09/17 01:21:12;;;;;;;8.35;4.20;;;;;;;18.65;100.00;152339.56;1771461;80;21092;-59
2022/09/17 01:24:04;;;;;;;6.00;3.40;;;;;;;18.65;100.00;152340.89;1772306;80;21054;-59
2022/09/17 01:26:54;;;;;;;5.37;3.85;;;;;;;18.68;100.00;152348.70;1775579;79;21172;-59
2022/09/17 01:29:48;;;;;;;9.68;4.53;;;;;;;18.71;100.00;152356.53;1775382;79;21038;-58
2022/09/17 01:32:46;;;;;;;9.70;4.50;;;;;;;18.73;100.00;152360.47;1776184;79;21008;-58
2022/09/17 01:35:40;;;;;;;4.95;4.15;;;;;;;18.75;100.00;152366.97;1772608;79;21033;-60
2022/09/17 01:38:30;;;;;;;8.33;4.40;;;;;;;18.76;100.00;152368.30;1790590;79;22062;-59
2022/09/17 01:41:14;;;;;;;8.03;4.75;;;;;;;18.77;100.00;152370.91;1792286;79;21101;-60
2022/09/17 01:43:52;;;;;;;7.65;4.17;;;;;;;18.82;100.00;152383.94;1772776;79;21036;-59
2022/09/17 01:46:27;;;;;;;8.53;4.15;;;;;;;18.81;100.00;152381.33;1784425;79;21493;-60
2022/09/17 01:48:58;;;;;;;10.03;4.47;;;;;;;18.82;100.00;152382.66;1771730;79;21098;-60
2022/09/17 01:51:28;;;;;;;7.78;4.42;;;;;;;18.85;100.00;152391.75;1788290;80;21036;-59
2022/09/17 01:54:02;;;;;;;12.40;4.53;;;;;;;18.86;100.00;152393.09;1772337;79;21888;-58
2022/09/17 01:56:34;;;;;;;10.32;4.35;;;;;;;18.85;100.00;152391.75;1764672;80;21046;-58
2022/09/17 01:59:12;;;;;;;11.55;4.65;;;;;;;18.87;100.00;152396.97;1777319;80;21661;-59
2022/09/17 02:01:39;;;;;;;9.55;4.58;;;;;;;18.92;100.00;152407.45;1775002;80;21044;-59
2022/09/17 02:04:18;;;;;;;7.55;4.75;;;;;;;18.94;100.00;152412.67;1776365;80;20913;-59
2022/09/17 02:06:49;;;;;;;9.33;4.50;;;;;;;18.94;100.00;152412.67;1786206;79;21293;-60
2022/09/17 02:09:36;;;;;;;9.78;4.17;;;;;;;19.00;100.00;152428.38;1774332;79;21026;-60
2022/09/17 02:12:06;;;;;;;11.25;5.22;;;;;;;19.05;100.00;152441.41;1775182;80;21018;-60
2022/09/17 02:14:38;;;;;;;13.90;5.50;;;;;;;19.07;100.00;152446.63;1782323;80;21002;-60
2022/09/17 02:17:27;;;;;;;12.13;4.97;;;;;;;19.12;100.00;152458.39;1765342;80;21134;-60
2022/09/17 02:19:54;;;;;;;11.95;5.30;;;;;;;19.17;100.00;152471.44;1772607;79;21180;-59
2022/09/17 02:22:26;;;;;;;13.13;5.35;;;;;;;19.18;100.00;152474.03;1764172;80;20971;-60
2022/09/17 02:25:01;;;;;;;13.32;5.40;;;;;;;19.22;100.00;152483.19;1772460;80;21065;-69
2022/09/17 02:27:44;;;;;;;15.38;5.37;;;;;;;19.29;100.00;152501.45;1776089;80;21110;-69
2022/09/17 02:30:12;;;;;;;11.78;5.12;;;;;;;19.33;100.00;152511.89;1781804;78;21022;-69
2022/09/17 02:32:41;;;;;;;12.10;5.40;;;;;;;19.33;100.00;152511.89;1787374;78;21235;-67
2022/09/17 02:35:10;;;;;;;7.37;5.17;;;;;;;19.37;100.00;152522.38;1789748;80;21040;-69
2022/09/17 02:37:37;;;;;;;10.60;5.78;;;;;;;19.40;100.00;152528.88;1787924;79;21024;-59
2022/09/17 02:40:06;;;;;;;6.42;4.78;;;;;;;19.40;100.00;152530.20;1787077;80;21065;-59
2022/09/17 02:43:10;;;;;;;8.33;5.15;;;;;;;19.42;100.00;152535.42;1780472;78;21553;-59
2022/09/17 02:45:45;;;;;;;10.25;5.30;;;;;;;19.45;100.00;152543.25;1787612;80;21226;-59
2022/09/17 02:48:56;;;;;;;11.97;5.33;;;;;;;19.49;100.00;152552.41;1791934;78;20965;-59
2022/09/17 02:51:49;;;;;;;12.43;5.58;;;;;;;19.49;100.00;152551.06;1788207;79;21012;-59
2022/09/17 02:54:25;;;;;;;11.43;5.40;;;;;;;19.53;100.00;152561.50;1795012;78;21012;-59
2022/09/17 02:57:17;;;;;;;8.08;4.97;;;;;;;19.54;100.00;152564.13;1787915;80;21018;-59
2022/09/17 03:00:15;;;;;;;9.70;5.30;;;;;;;19.54;100.00;152564.13;1790358;78;21821;-69
2022/09/17 03:03:00;;;;;;;7.08;4.87;;;;;;;19.59;100.00;152577.20;1788159;80;21002;-69
2022/09/17 03:05:27;;;;;;;9.73;5.42;;;;;;;19.61;100.00;152583.70;1787597;78;21028;-69
2022/09/17 03:07:55;;;;;;;6.80;5.10;;;;;;;19.60;100.00;152579.81;1787221;80;21077;-69
2022/09/17 03:10:22;;;;;;;8.38;5.70;;;;;;;19.63;100.00;152587.64;1786328;80;21598;-69
2022/09/17 03:12:50;;;;;;;8.75;5.90;;;;;;;19.66;100.00;152595.47;1796039;78;21522;-69
2022/09/17 03:15:17;;;;;;;10.38;6.17;;;;;;;19.68;100.00;152600.69;1794289;78;21028;-69
2022/09/17 03:17:46;;;;;;;7.45;6.60;;;;;;;19.69;100.00;152603.30;1789179;79;21449;-59
2022/09/17 03:20:14;;;;;;;10.38;6.72;;;;;;;19.74;100.00;152616.34;1793112;78;21020;-59
2022/09/17 03:22:42;;;;;;;12.82;6.75;;;;;;;19.79;100.00;152626.84;1786039;79;21049;-59
2022/09/17 03:25:08;;;;;;;9.00;6.97;;;;;;;19.80;100.00;152629.44;1787459;80;22022;-68
2022/09/17 03:27:35;;;;;;;12.25;7.15;;;;;;;19.83;100.00;152638.56;1788062;80;21009;-69
2022/09/17 03:30:03;;;;;;;10.05;7.60;;;;;;;19.88;100.00;152650.31;1790675;78;21245;-59
2022/09/17 03:32:30;;;;;;;12.33;7.65;;;;;;;19.88;100.00;152651.59;1786921;80;21559;-59
2022/09/17 03:34:58;;;;;;;11.22;7.42;;;;;;;19.89;100.00;152652.92;1786554;80;21490;-58
2022/09/17 03:37:25;;;;;;;12.37;8.08;;;;;;;19.93;100.00;152663.41;1790579;78;21176;-59
2022/09/17 03:39:52;;;;;;;12.88;8.25;;;;;;;19.97;100.00;152673.86;1787137;79;21047;-61
2022/09/17 03:42:19;;;;;;;14.23;8.23;;;;;;;19.97;100.00;152673.86;1789381;80;21072;-61
2022/09/17 03:44:46;;;;;;;15.20;8.25;;;;;;;19.97;100.00;152673.86;1788193;79;21004;-70
2022/09/17 03:47:15;;;;;;;14.05;8.28;;;;;;;20.00;100.00;152681.69;1788779;79;21052;-71
2022/09/17 03:49:41;;;;;;;12.80;7.90;;;;;;;20.01;100.00;152684.34;1786929;80;21982;-70
2022/09/17 03:52:08;;;;;;;10.15;7.92;;;;;;;20.00;100.00;152680.41;1792721;78;20940;-70
2022/09/17 03:54:35;;;;;;;12.98;7.67;;;;;;;20.01;100.00;152684.34;1788769;79;21110;-69
2022/09/17 03:57:03;;;;;;;11.65;6.90;;;;;;;20.04;100.00;152692.17;1785799;80;21028;-69
2022/09/17 03:59:30;;;;;;;10.08;7.45;;;;;;;20.04;100.00;152692.17;1793497;78;20948;-69
2022/09/17 04:01:57;;;;;;;12.30;6.78;;;;;;;20.06;100.00;152694.78;1788222;79;21283;-68
2022/09/17 04:04:24;;;;;;;11.83;7.35;;;;;;;20.07;100.00;152698.67;1787927;79;21599;-69
2022/09/17 04:06:53;;;;;;;11.38;6.75;;;;;;;20.10;100.00;152705.22;1789125;78;20978;-68
2022/09/17 04:09:21;;;;;;;12.45;7.60;;;;;;;20.10;100.00;152705.22;1791240;78;21047;-59
2022/09/17 04:11:48;;;;;;;12.07;7.70;;;;;;;20.11;100.00;152707.83;1791030;78;21091;-59
2022/09/17 04:14:14;;;;;;;14.20;8.15;;;;;;;20.12;100.00;152710.44;1791700;78;21156;-58
2022/09/17 04:16:41;;;;;;;17.02;8.63;;;;;;;20.14;100.00;152715.66;1786886;80;21042;-59
2022/09/17 04:19:08;;;;;;;14.60;8.30;;;;;;;20.12;100.00;152710.44;1790540;78;21143;-59
2022/09/17 04:21:35;;;;;;;20.25;8.65;;;;;;;20.13;100.00;152713.05;1792960;78;21020;-67
2022/09/17 04:24:01;;;;;;;15.75;8.45;;;;;;;20.17;100.00;152723.50;1792064;78;21027;-69
2022/09/17 04:26:28;;;;;;;10.50;7.55;;;;;;;20.18;100.00;152726.09;1792845;78;21125;-68
2022/09/17 04:28:55;;;;;;;17.07;8.20;;;;;;;20.17;100.00;152724.81;1791225;78;21073;-69
2022/09/17 04:31:23;;;;;;;15.58;7.62;;;;;;;20.21;100.00;152732.66;1780759;78;21081;-69
2022/09/17 04:33:50;;;;;;;13.15;7.67;;;;;;;20.24;100.00;152741.81;1774370;80;20999;-69
2022/09/17 04:36:17;;;;;;;18.25;7.60;;;;;;;20.22;100.00;152736.55;1780670;79;21025;-68
2022/09/17 04:38:48;;;;;;;10.88;7.35;;;;;;;20.22;100.00;152736.55;1772481;80;21969;-69
2022/09/17 04:41:15;;;;;;;18.00;7.80;;;;;;;20.27;100.00;152748.31;1785105;79;21063;-59
2022/09/17 04:43:43;;;;;;;11.43;7.17;;;;;;;20.28;100.00;152752.25;1772453;80;21073;-68
2022/09/17 04:46:10;;;;;;;10.35;6.75;;;;;;;20.29;100.00;152754.86;1772227;80;21066;-59
2022/09/17 04:48:36;;;;;;;13.48;7.20;;;;;;;20.30;100.00;152757.47;1771821;80;21037;-68
2022/09/17 04:51:04;;;;;;;11.10;7.33;;;;;;;20.36;100.00;152770.53;1772126;80;21902;-69
2022/09/17 04:53:31;;;;;;;12.18;6.20;;;;;;;20.37;100.00;152773.14;1772363;79;21532;-69
2022/09/17 04:55:58;;;;;;;12.53;6.67;;;;;;;20.33;100.00;152765.30;1771963;80;21038;-69
2022/09/17 04:58:25;;;;;;;12.45;6.35;;;;;;;20.36;100.00;152770.53;1772018;79;21307;-69
2022/09/17 05:00:52;;;;;;;11.95;6.10;;;;;;;20.40;100.00;152780.97;1772740;80;21495;-58
2022/09/17 05:03:18;;;;;;;10.15;5.97;;;;;;;20.39;100.00;152779.69;1772771;80;21214;-59
2022/09/17 05:05:45;;;;;;;11.88;5.75;;;;;;;20.40;100.00;152782.30;1772287;79;21029;-59
2022/09/17 05:08:12;;;;;;;11.43;5.87;;;;;;;20.45;100.00;152795.34;1774611;79;21450;-59
2022/09/17 05:10:39;;;;;;;11.05;6.25;;;;;;;20.49;100.00;152804.50;1776513;79;21037;-70
2022/09/17 05:13:06;;;;;;;21.75;6.65;;;;;;;20.50;100.00;152807.13;1776725;79;21121;-69
2022/09/17 05:15:33;;;;;;;14.25;6.12;;;;;;;20.55;100.00;152818.84;1775370;79;21132;-60
2022/09/17 05:18:00;;;;;;;15.10;6.30;;;;;;;20.63;100.00;152838.44;1771668;79;21028;-60
2022/09/17 05:20:27;;;;;;;12.90;6.83;;;;;;;20.72;100.00;152863.28;1775601;79;21091;-58
2022/09/17 05:22:54;;;;;;;14.07;6.65;;;;;;;20.82;100.00;152888.16;1772375;79;21024;-68
2022/09/17 05:25:23;;;;;;;16.62;7.25;;;;;;;20.93;100.00;152914.31;1772317;79;21105;-59
2022/09/17 05:27:51;;;;;;;14.93;7.00;;;;;;;21.00;100.00;152932.59;1771221;80;21773;-68
2022/09/17 05:30:18;;;;;;;18.00;6.90;;;;;;;21.04;100.00;152944.38;1776182;79;22153;-68
2022/09/17 05:32:45;;;;;;;15.43;7.25;;;;;;;21.07;100.00;152950.88;1781235;79;21024;-69
2022/09/17 05:35:12;;;;;;;14.28;7.80;;;;;;;21.14;100.00;152969.20;1773447;79;21077;-69
2022/09/17 05:37:40;;;;;;;16.20;8.45;;;;;;;21.20;100.00;152982.27;1772729;79;21027;-59
2022/09/17 05:40:09;;;;;;;15.83;8.98;;;;;;;21.23;100.00;152990.09;1771734;79;21863;-68
2022/09/17 05:42:35;;;;;;;17.10;9.28;;;;;;;21.29;100.00;153005.78;1771880;80;20966;-69
2022/09/17 05:45:04;;;;;;;13.13;9.78;;;;;;;21.35;100.00;153020.16;1775428;79;21026;-70
2022/09/17 05:47:31;;;;;;;15.90;9.80;;;;;;;21.37;100.00;153026.72;1771941;79;21005;-58
2022/09/17 05:49:58;;;;;;;16.20;10.20;;;;;;;21.39;100.00;153031.94;1772575;80;21037;-58
2022/09/17 05:52:28;;;;;;;16.10;9.80;;;;;;;21.50;100.00;153058.06;1771929;79;21262;-59
2022/09/17 05:54:56;;;;;;;17.25;9.80;;;;;;;21.65;100.00;153097.34;1775687;79;21462;-59
2022/09/17 05:57:23;;;;;;;15.98;9.55;;;;;;;21.84;100.00;153144.42;1772301;79;21088;-59
2022/09/17 05:59:50;;;;;;;16.55;8.95;;;;;;;21.97;100.00;153178.39;1777999;79;21009;-59
2022/09/17 06:02:17;;;;;;;21.68;9.45;;;;;;;22.14;100.00;153220.25;1777826;79;21458;-59
2022/09/17 06:04:44;;;;;;;14.40;9.23;;;;;;;22.27;100.00;153254.27;1773026;80;21176;-60
2022/09/17 06:07:12;;;;;;;15.90;8.55;;;;;;;22.33;100.00;153269.95;1760016;79;21087;-59
2022/09/17 06:09:40;;;;;;;14.15;9.45;;;;;;;22.42;100.00;153292.19;1772004;80;21473;-59
2022/09/17 06:12:07;;;;;;;18.62;9.35;;;;;;;22.51;100.00;153314.48;1770671;80;21113;-60
2022/09/17 06:14:35;;;;;;;13.95;8.68;;;;;;;22.55;100.00;153324.94;1771476;80;21057;-60
2022/09/17 06:17:01;;;;;;;13.20;8.48;;;;;;;22.57;100.00;153330.16;1775322;79;21194;-59
2022/09/17 06:19:28;;;;;;;15.32;9.10;;;;;;;22.61;100.00;153340.63;1775877;79;21021;-59
2022/09/17 06:21:55;;;;;;;17.90;8.45;;;;;;;22.65;100.00;153348.47;1775574;79;21002;-59
2022/09/17 06:24:22;;;;;;;19.45;9.53;;;;;;;22.78;100.00;153381.22;1779919;79;21069;-59
2022/09/17 06:26:51;;;;;;;15.32;8.15;;;;;;;22.88;100.00;153408.69;1771289;80;21049;-58
2022/09/17 06:29:17;;;;;;;14.33;8.08;;;;;;;23.07;100.00;153455.75;1772171;80;21227;-59
2022/09/17 06:31:44;;;;;;;14.60;7.53;;;;;;;23.40;100.00;153538.25;1772685;79;21083;-59
2022/09/17 06:34:11;;;;;;;13.75;7.35;;;;;;;24.02;100.00;153696.72;1769806;80;21510;-59
2022/09/17 06:36:39;;;;;;;17.48;6.80;;;;;;;24.69;100.00;153864.33;1773623;79;21060;-59
2022/09/17 06:39:06;;;;;;;15.88;7.28;;;;;;;25.42;100.00;154050.39;1786824;80;21071;-59
2022/09/17 06:41:32;;;;;;;18.30;6.60;;;;;;;25.82;97.40;154151.33;1773480;80;22126;-59
2022/09/17 06:44:01;;;;;;;17.20;6.50;;;;;;;26.02;93.64;154202.47;1744325;80;21127;-59
2022/09/17 06:46:27;;;;;;;13.50;6.80;;;;;;;26.20;92.25;154245.77;1772778;79;21022;-59
2022/09/17 06:48:54;;;;;;;15.20;5.60;;;;;;;26.60;89.81;154348.03;1769433;80;21024;-59
2022/09/17 06:51:22;;;;;;;13.13;5.70;;;;;;;26.96;86.84;154439.84;1768019;79;21042;-59
2022/09/17 06:53:49;;;;;;;10.72;5.75;;;;;;;26.92;84.43;154428.08;1779464;79;21460;-59
2022/09/17 06:56:16;;;;;;;12.23;5.20;;;;;;;26.70;84.54;154372.95;1771825;80;21043;-59
2022/09/17 06:58:43;;;;;;;18.98;5.67;;;;;;;26.48;85.17;154317.87;1787382;78;21060;-59
2022/09/17 07:01:11;;;;;;;14.90;4.92;;;;;;;26.28;85.94;154266.72;1772452;79;21032;-59
2022/09/17 07:03:37;;;;;;;16.30;4.30;;;;;;;26.08;86.71;154215.56;1779800;79;21018;-59
2022/09/17 07:06:09;;;;;;;13.18;4.10;;;;;;;25.90;87.43;154171.00;1781512;79;21918;-59
2022/09/17 07:08:36;;;;;;;10.32;4.30;;;;;;;25.76;88.24;154134.33;1776346;79;20949;-58
2022/09/17 07:11:04;;;;;;;12.15;3.98;;;;;;;25.61;88.76;154097.63;1773628;79;21038;-59
2022/09/17 07:13:31;;;;;;;11.88;3.80;;;;;;;25.52;89.81;154074.00;1776426;79;21029;-59
2022/09/17 07:16:01;;;;;;;15.80;4.22;;;;;;;25.41;90.62;154047.77;1778569;79;21534;-58
2022/09/17 07:18:30;;;;;;;13.75;3.75;;;;;;;25.34;91.07;154029.44;1770460;80;21370;-58
2022/09/17 07:20:59;;;;;;;15.28;4.37;;;;;;;25.29;91.33;154016.30;1772297;80;21049;-58
2022/09/17 07:23:29;;;;;;;13.58;4.03;;;;;;;25.25;91.25;154005.83;1777594;79;21428;-59
2022/09/17 07:25:58;;;;;;;13.48;3.65;;;;;;;25.20;91.47;153992.75;1783649;79;20980;-58
2022/09/17 07:28:25;;;;;;;11.48;3.33;;;;;;;25.17;91.52;153986.17;1778075;79;21050;-58
2022/09/17 07:30:52;;;;;;;15.45;3.47;;;;;;;25.15;91.41;153982.27;1783842;79;21834;-59
2022/09/17 07:33:24;;;;;;;13.30;3.77;;;;;;;25.09;90.67;153966.56;1769888;79;21024;-59
2022/09/17 07:35:53;;;;;;;16.57;3.42;;;;;;;25.05;91.51;153956.03;1774386;79;20998;-58
2022/09/17 07:38:21;;;;;;;18.15;4.05;;;;;;;25.03;92.35;153950.80;1784186;79;21006;-59
2022/09/17 07:41:00;;;;;;;11.93;3.83;;;;;;;24.98;93.14;153937.72;1785615;79;21036;-59
2022/09/17 07:43:30;;;;;;;12.23;4.20;;;;;;;24.91;93.84;153919.39;1784534;79;21230;-59
2022/09/17 07:45:58;;;;;;;13.88;3.45;;;;;;;24.80;94.85;153893.17;1782852;80;21474;-60
2022/09/17 07:48:25;;;;;;;15.60;3.17;;;;;;;24.78;95.80;153886.66;1777319;79;21011;-60
2022/09/17 07:50:52;;;;;;;11.60;3.10;;;;;;;24.74;96.17;153877.42;1775149;79;21474;-59
2022/09/17 07:53:19;;;;;;;13.75;3.65;;;;;;;24.72;96.99;153872.19;1784035;79;21036;-60
2022/09/17 07:55:57;;;;;;;10.25;3.05;;;;;;;24.71;97.27;153869.56;1771152;79;21192;-59
2022/09/17 07:58:29;;;;;;;12.98;2.65;;;;;;;24.66;97.67;153857.77;1766356;79;21012;-58
2022/09/17 08:01:05;;;;;;;13.00;2.70;;;;;;;24.65;98.00;153855.14;1776932;79;21044;-59
2022/09/17 08:03:32;;;;;;;14.25;2.83;;;;;;;24.63;98.51;153849.91;1777629;79;21592;-59
2022/09/17 08:06:05;;;;;;;12.88;2.98;;;;;;;24.62;98.93;153847.30;1777858;79;20919;-58
2022/09/17 08:08:32;;;;;;;9.98;2.95;;;;;;;24.63;99.04;153849.91;1774586;79;21155;-59
2022/09/17 08:11:04;;;;;;;18.48;3.52;;;;;;;24.63;99.58;153848.58;1767619;79;21051;-60
2022/09/17 08:13:31;;;;;;;11.38;3.02;;;;;;;24.65;99.44;153853.81;1769419;80;21510;-59
2022/09/17 08:16:00;;;;;;;12.58;3.20;;;;;;;24.71;99.62;153869.56;1788638;79;21435;-59
2022/09/17 08:18:27;;;;;;;11.12;2.70;;;;;;;24.76;99.52;153882.70;1768514;79;21034;-68
2022/09/17 08:21:02;;;;;;;12.00;3.25;;;;;;;24.79;99.73;153890.56;1772145;79;21229;-69
2022/09/17 08:23:29;;;;;;;10.48;2.80;;;;;;;24.82;99.69;153898.41;1776732;79;21527;-69
2022/09/17 08:25:58;;;;;;;13.72;3.37;;;;;;;24.83;99.42;153901.03;1775304;79;20992;-69
2022/09/17 08:28:28;;;;;;;12.43;3.12;;;;;;;24.83;99.53;153901.03;1764558;80;21179;-69
2022/09/17 08:31:02;;;;;;;11.93;3.00;;;;;;;24.82;99.40;153898.41;1777600;79;21048;-69
2022/09/17 08:33:32;;;;;;;;;;;;;;;24.83;99.88;153901.03;1766854;80;21436;-69
2022/09/17 08:36:00;;;;;;;10.80;2.77;;;;;;;24.88;99.93;153914.16;1712569;83;20157;-69
2022/09/17 08:38:31;;;;;;;11.65;3.10;;;;;;;24.87;99.84;153911.53;1715899;83;21418;-69
2022/09/17 08:41:12;;;;;;;12.50;3.05;;;;;;;24.91;100.00;153919.39;1779159;79;21055;-68
2022/09/17 08:43:51;;;;;;;12.63;2.95;;;;;;;24.95;100.00;153929.86;1769675;80;21093;-69
2022/09/17 08:46:18;;;;;;;12.23;3.20;;;;;;;24.96;100.00;153932.48;1778002;79;21106;-69
2022/09/17 08:49:01;;;;;;;9.93;2.52;;;;;;;24.92;100.00;153923.30;1771568;79;21060;-69
2022/09/17 08:52:10;;;;;;;13.08;3.50;;;;;;;24.92;100.00;153923.30;1784382;79;21013;-69
2022/09/17 08:55:02;;;;;;;16.17;2.87;;;;;;;24.91;100.00;153920.67;1764906;79;20956;-69
2022/09/17 08:57:57;;;;;;;10.53;3.35;;;;;;;24.91;100.00;153919.39;1779083;80;21042;-69
2022/09/17 09:00:24;;;;;;;10.05;2.70;;;;;;;24.87;100.00;153911.53;1789381;79;21075;-70
2022/09/17 09:03:22;;;;;;;14.58;3.17;;;;;;;24.88;100.00;153914.16;1788927;79;21028;-69
2022/09/17 09:05:55;;;;;;;9.55;2.85;;;;;;;24.92;99.79;153922.02;1780538;79;21026;-68
2022/09/17 09:08:36;;;;;;;15.55;4.17;;;;;;;24.94;99.06;153927.25;1769885;80;21349;-69
2022/09/17 09:11:12;;;;;;;17.75;3.50;;;;;;;24.95;98.45;153929.86;1774802;80;21066;-69
2022/09/17 09:13:44;;;;;;;11.95;3.20;;;;;;;24.94;98.18;153927.25;1780179;79;21134;-68
2022/09/17 09:16:25;;;;;;;13.22;3.60;;;;;;;24.94;97.97;153928.53;1772405;79;21548;-68
2022/09/17 09:18:54;;;;;;;10.63;3.45;;;;;;;24.92;96.73;153923.30;1782172;79;21073;-68
2022/09/17 09:21:31;;;;;;;13.95;4.03;;;;;;;24.92;95.52;153922.02;1788695;78;21043;-68
2022/09/17 09:24:25;;;;;;;10.20;3.20;;;;;;;24.94;95.25;153927.25;1773617;79;20977;-69
2022/09/17 09:27:06;;;;;;;12.55;3.20;;;;;;;24.96;94.98;153932.48;1773049;79;21154;-69
2022/09/17 09:30:05;;;;;;;12.90;3.05;;;;;;;24.94;94.72;153927.25;1778558;80;21063;-67
2022/09/17 09:32:59;;;;;;;10.10;3.10;;;;;;;24.92;93.91;153922.02;1772560;79;21082;-69
2022/09/17 09:35:32;;;;;;;15.43;3.62;;;;;;;24.90;93.02;153918.06;1787040;79;21000;-68
2022/09/17 09:38:07;;;;;;;11.45;3.17;;;;;;;24.94;93.06;153927.25;1786208;79;20957;-59
2022/09/17 09:40:51;;;;;;;10.68;3.02;;;;;;;24.97;92.21;153935.09;1780595;79;21228;-60
2022/09/17 09:43:26;;;;;;;10.60;2.67;;;;;;;25.00;90.96;153942.95;1780891;79;21025;-59
2022/09/17 09:46:18;;;;;;;14.45;3.72;;;;;;;25.08;93.48;153963.89;1771650;79;21440;-60
2022/09/17 09:49:34;;;;;;;18.80;3.75;;;;;;;25.09;94.57;153966.56;1773496;79;21009;-69
2022/09/17 09:52:20;;;;;;;14.23;2.98;;;;;;;25.05;96.31;153956.03;1773952;80;20952;-67
2022/09/17 09:55:29;;;;;;;21.60;4.17;;;;;;;24.96;97.28;153932.48;1765470;80;21627;-68
2022/09/17 09:58:14;;;;;;;10.75;3.00;;;;;;;24.89;98.60;153915.44;1763920;80;20983;-69
2022/09/17 10:00:42;;;;;;;21.80;4.47;;;;;;;24.81;99.40;153895.78;1773699;80;21105;-68
2022/09/17 10:03:19;;;;;;;14.98;3.80;;;;;;;24.77;100.00;153885.31;1777985;79;21048;-69
2022/09/17 10:06:02;;;;;;;15.68;3.47;;;;;;;24.74;100.00;153877.42;1775892;79;21077;-68
2022/09/17 10:08:35;;;;;;;12.85;3.80;;;;;;;24.70;100.00;153866.95;1783132;79;21246;-70
2022/09/17 10:11:05;;;;;;;14.07;3.75;;;;;;;24.67;100.00;153859.09;1774048;79;21089;-59
2022/09/17 10:13:35;;;;;;;18.80;3.60;;;;;;;24.71;100.00;153869.56;1767692;79;20959;-59
2022/09/17 10:16:18;;;;;;;18.20;3.90;;;;;;;24.72;100.00;153872.19;1765431;80;21024;-58
2022/09/17 10:18:48;;;;;;;14.50;3.70;;;;;;;24.71;100.00;153869.56;1773729;80;21066;-59
2022/09/17 10:21:36;;;;;;;14.68;3.52;;;;;;;24.71;100.00;153869.56;1765418;80;21400;-59
2022/09/17 10:24:06;;;;;;;18.32;3.75;;;;;;;24.66;100.00;153857.77;1767639;80;21097;-60
2022/09/17 10:26:35;;;;;;;12.45;3.05;;;;;;;24.57;100.00;153835.48;1772077;79;20972;-60
2022/09/17 10:29:04;;;;;;;18.45;3.58;;;;;;;24.55;100.00;153830.25;1780610;80;20998;-60
2022/09/17 10:31:49;;;;;;;12.65;3.35;;;;;;;24.55;100.00;153828.97;1774107;80;21007;-60
2022/09/17 10:34:23;;;;;;;13.50;2.65;;;;;;;24.63;100.00;153849.91;1773827;79;21216;-60
2022/09/17 10:36:50;;;;;;;18.57;3.37;;;;;;;24.68;100.00;153863.00;1787115;79;21084;-60
2022/09/17 10:39:35;;;;;;;12.47;3.30;;;;;;;24.70;100.00;153866.95;1776003;79;21103;-61
2022/09/17 10:42:14;;;;;;;14.10;3.05;;;;;;;24.70;99.16;153868.23;1778103;80;20947;-70
2022/09/17 10:44:55;;;;;;;13.48;2.77;;;;;;;24.70;97.94;153866.95;1773658;79;21497;-70
2022/09/17 10:47:30;;;;;;;11.80;3.17;;;;;;;24.65;97.64;153855.14;1778441;80;22146;-70
2022/09/17 10:50:09;;;;;;;11.38;2.67;;;;;;;24.59;97.50;153840.72;1771820;80;21058;-71
2022/09/17 10:52:42;;;;;;;13.68;2.95;;;;;;;24.53;97.15;153825.03;1770407;80;21035;-70
2022/09/17 10:55:33;;;;;;;9.83;2.85;;;;;;;24.44;97.59;153801.47;1769429;80;20975;-70
2022/09/17 10:58:17;;;;;;;9.50;2.75;;;;;;;24.39;98.10;153788.34;1773004;79;21308;-72
2022/09/17 11:01:16;;;;;;;12.20;3.23;;;;;;;24.41;98.48;153793.56;1781648;79;21428;-71
2022/09/17 11:04:32;;;;;;;13.03;2.98;;;;;;;24.43;98.31;153798.86;1780018;80;21013;-69
2022/09/17 11:07:29;;;;;;;16.32;2.87;;;;;;;24.45;97.71;153804.09;1759957;80;20997;-70
2022/09/17 11:10:23;;;;;;;7.97;3.02;;;;;;;24.45;97.40;153804.09;1766729;79;21024;-70
2022/09/17 11:12:58;;;;;;;13.68;3.20;;;;;;;24.48;97.39;153811.94;1728302;79;21691;-70
2022/09/17 11:15:40;;;;;;;13.72;2.90;;;;;;;24.51;97.08;153819.78;1773724;79;21552;-71
2022/09/17 11:18:25;;;;;;;11.33;2.55;;;;;;;24.55;96.72;153830.25;1774950;80;20971;-70
2022/09/17 11:21:09;;;;;;;13.08;2.87;;;;;;;24.58;96.44;153838.11;1783841;79;21025;-70
2022/09/17 11:23:58;;;;;;;12.70;3.00;;;;;;;24.65;96.33;153853.81;1780173;79;21030;-70
2022/09/17 11:26:46;;;;;;;14.05;3.22;;;;;;;24.72;95.92;153872.19;1768867;80;21024;-70
2022/09/17 11:29:27;;;;;;;10.43;2.92;;;;;;;24.78;95.61;153887.94;1779136;79;21278;-69
2022/09/17 11:32:37;;;;;;;13.60;3.17;;;;;;;24.84;94.71;153903.64;1780677;79;20976;-62
2022/09/17 11:35:18;;;;;;;10.80;3.02;;;;;;;24.87;94.22;153911.53;1772770;79;21030;-61
2022/09/17 11:38:00;;;;;;;12.13;3.02;;;;;;;24.89;93.92;153916.78;1777220;79;21034;-61
2022/09/17 11:40:43;;;;;;;13.88;3.30;;;;;;;24.90;93.39;153918.06;1779150;80;21403;-61
2022/09/17 11:43:26;;;;;;;12.47;3.17;;;;;;;24.87;93.02;153911.53;1770929;80;21083;-62
2022/09/17 11:46:10;;;;;;;13.05;3.08;;;;;;;24.88;92.86;153914.16;1780558;78;21411;-62